EZS1083 EHRD-LSGG
Flight info
| Callsign | EZS1083 |
|---|---|
| Flight time | N/A |
| Altitude | 39000 |
| Route | WOODY N872 NIK M624 BUB DCT REMBA DCT SUTAL DCT GTQ DCT POGOL DCT LASAT DCT MOROK Z24 AKITO |
| Aircraft | A20N/M-SDE2E3FGHIRWXY/LB1 |
Departure
| Time | 2026-05-07 17:20 |
|---|---|
| Airport | Rotterdam The Hague Airport (EHRD) |
Arrival
| Time | N/A |
|---|---|
| Airport | Geneva International Airport (LSGG) |
| Time | Latitude | Longitude | Altitude | Speed | Heading |
|---|---|---|---|---|---|
| 2026-05-07 17:02 | 51.94966 | 4.43638 | 4 ft | 0 kts | 327° |
| 2026-05-07 17:15 | 51.94968 | 4.43635 | 4 ft | 3 kts | 326° |
| 2026-05-07 17:16 | 51.94986 | 4.43619 | 5 ft | 2 kts | 350° |
| 2026-05-07 17:16 | 51.95006 | 4.43634 | 4 ft | 7 kts | 26° |
| 2026-05-07 17:16 | 51.95085 | 4.43596 | 4 ft | 17 kts | 327° |
| 2026-05-07 17:16 | 51.95192 | 4.43486 | 4 ft | 14 kts | 328° |
| 2026-05-07 17:17 | 51.95219 | 4.43458 | 4 ft | 9 kts | 323° |
| 2026-05-07 17:17 | 51.95210 | 4.43319 | 4 ft | 15 kts | 239° |
| 2026-05-07 17:17 | 51.95158 | 4.43173 | 4 ft | 14 kts | 252° |
| 2026-05-07 17:17 | 51.95176 | 4.43109 | 4 ft | 0 kts | 334° |
| 2026-05-07 17:18 | 51.95202 | 4.43101 | 4 ft | 8 kts | 356° |
| 2026-05-07 17:18 | 51.95292 | 4.43110 | 5 ft | 14 kts | 18° |
| 2026-05-07 17:19 | 51.95357 | 4.43196 | 4 ft | 7 kts | 55° |
| 2026-05-07 17:19 | 51.95358 | 4.43198 | 4 ft | 0 kts | 55° |
| 2026-05-07 17:19 | 51.95459 | 4.43443 | 3 ft | 62 kts | 57° |
| 2026-05-07 17:20 | 51.95773 | 4.44237 | 3 ft | 120 kts | 57° |
| 2026-05-07 17:20 | 51.96273 | 4.45526 | 274 ft | 144 kts | 56° |
| 2026-05-07 17:20 | 51.96852 | 4.47006 | 902 ft | 155 kts | 57° |
| 2026-05-07 17:20 | 51.97386 | 4.48558 | 1702 ft | 170 kts | 62° |
| 2026-05-07 17:21 | 51.97963 | 4.50377 | 2112 ft | 197 kts | 63° |
| 2026-05-07 17:21 | 51.98628 | 4.52493 | 2428 ft | 233 kts | 63° |
| 2026-05-07 17:21 | 51.99388 | 4.54894 | 3201 ft | 249 kts | 63° |
| 2026-05-07 17:21 | 52.00203 | 4.57457 | 4152 ft | 256 kts | 63° |
| 2026-05-07 17:22 | 52.00839 | 4.60152 | 5079 ft | 259 kts | 85° |
| 2026-05-07 17:22 | 52.00523 | 4.62995 | 5943 ft | 262 kts | 121° |
| 2026-05-07 17:22 | 51.99242 | 4.65042 | 6837 ft | 265 kts | 155° |
| 2026-05-07 17:22 | 51.97486 | 4.65931 | 7742 ft | 268 kts | 167° |
| 2026-05-07 17:23 | 51.95652 | 4.66595 | 8649 ft | 273 kts | 172° |
| 2026-05-07 17:23 | 51.93764 | 4.66680 | 9620 ft | 275 kts | 188° |
| 2026-05-07 17:23 | 51.91892 | 4.65997 | 10401 ft | 284 kts | 197° |
| 2026-05-07 17:23 | 51.89927 | 4.65032 | 10772 ft | 308 kts | 199° |
| 2026-05-07 17:24 | 51.87835 | 4.63920 | 11275 ft | 325 kts | 199° |
| 2026-05-07 17:24 | 51.85669 | 4.62713 | 12066 ft | 333 kts | 200° |
| 2026-05-07 17:24 | 51.83469 | 4.61459 | 12935 ft | 339 kts | 200° |
| 2026-05-07 17:24 | 51.81238 | 4.60173 | 13866 ft | 343 kts | 200° |
| 2026-05-07 17:25 | 51.78975 | 4.58861 | 14674 ft | 348 kts | 201° |
| 2026-05-07 17:25 | 51.76691 | 4.57533 | 15475 ft | 353 kts | 201° |
| 2026-05-07 17:25 | 51.74372 | 4.56184 | 16272 ft | 357 kts | 201° |
| 2026-05-07 17:25 | 51.72026 | 4.54819 | 17054 ft | 362 kts | 201° |
| 2026-05-07 17:26 | 51.69648 | 4.53437 | 17836 ft | 366 kts | 201° |
| 2026-05-07 17:26 | 51.67248 | 4.52043 | 18569 ft | 370 kts | 201° |
| 2026-05-07 17:26 | 51.64819 | 4.50634 | 19238 ft | 374 kts | 201° |
| 2026-05-07 17:26 | 51.62369 | 4.49214 | 19950 ft | 377 kts | 201° |
| 2026-05-07 17:27 | 51.59898 | 4.47783 | 20638 ft | 380 kts | 201° |
| 2026-05-07 17:27 | 51.57417 | 4.46349 | 21328 ft | 383 kts | 201° |
| 2026-05-07 17:27 | 51.54909 | 4.44900 | 21996 ft | 386 kts | 201° |
| 2026-05-07 17:27 | 51.52389 | 4.43446 | 22634 ft | 389 kts | 201° |
| 2026-05-07 17:28 | 51.49823 | 4.41967 | 23010 ft | 392 kts | 201° |
| 2026-05-07 17:28 | 51.47266 | 4.40496 | 23077 ft | 392 kts | 201° |
| 2026-05-07 17:28 | 51.44699 | 4.39020 | 23215 ft | 394 kts | 201° |
| 2026-05-07 17:28 | 51.42115 | 4.37535 | 23774 ft | 397 kts | 201° |
| 2026-05-07 17:29 | 51.39555 | 4.35896 | 24325 ft | 398 kts | 205° |
| 2026-05-07 17:29 | 51.37032 | 4.34090 | 24842 ft | 399 kts | 206° |
| 2026-05-07 17:29 | 51.34516 | 4.32189 | 25347 ft | 402 kts | 207° |
| 2026-05-07 17:29 | 51.31998 | 4.30244 | 25811 ft | 404 kts | 207° |
| 2026-05-07 17:30 | 51.29463 | 4.28276 | 26290 ft | 407 kts | 207° |
| 2026-05-07 17:30 | 51.27005 | 4.26374 | 26738 ft | 409 kts | 207° |
| 2026-05-07 17:30 | 51.24374 | 4.24596 | 27165 ft | 413 kts | 201° |
| 2026-05-07 17:30 | 51.21589 | 4.23418 | 27614 ft | 418 kts | 192° |
| 2026-05-07 17:31 | 51.18685 | 4.22997 | 28051 ft | 423 kts | 182° |
| 2026-05-07 17:31 | 51.16032 | 4.23360 | 28401 ft | 429 kts | 172° |
| 2026-05-07 17:31 | 51.13146 | 4.24634 | 28815 ft | 435 kts | 161° |
| 2026-05-07 17:31 | 51.10429 | 4.26821 | 29212 ft | 442 kts | 149° |
| 2026-05-07 17:32 | 51.07942 | 4.29718 | 29604 ft | 446 kts | 144° |
| 2026-05-07 17:32 | 51.05541 | 4.32852 | 29983 ft | 450 kts | 142° |
| 2026-05-07 17:32 | 51.03169 | 4.36103 | 30320 ft | 452 kts | 141° |
| 2026-05-07 17:32 | 51.01592 | 4.38296 | 30530 ft | 454 kts | 141° |
| 2026-05-07 17:33 | 50.98431 | 4.42684 | 31104 ft | 453 kts | 141° |
| 2026-05-07 17:33 | 50.96059 | 4.45941 | 31544 ft | 451 kts | 142° |
| 2026-05-07 17:33 | 50.93684 | 4.49168 | 31968 ft | 450 kts | 142° |
| 2026-05-07 17:33 | 50.91304 | 4.52375 | 32363 ft | 450 kts | 142° |
| 2026-05-07 17:34 | 50.88967 | 4.55663 | 32757 ft | 450 kts | 139° |
| 2026-05-07 17:34 | 50.86714 | 4.59086 | 33148 ft | 450 kts | 137° |
| 2026-05-07 17:34 | 50.84505 | 4.62578 | 33534 ft | 450 kts | 137° |
| 2026-05-07 17:34 | 50.82317 | 4.66084 | 33912 ft | 449 kts | 137° |
| 2026-05-07 17:35 | 50.80128 | 4.69589 | 34239 ft | 448 kts | 137° |
| 2026-05-07 17:35 | 50.77936 | 4.73077 | 34541 ft | 447 kts | 137° |
| 2026-05-07 17:35 | 50.75741 | 4.76546 | 34749 ft | 449 kts | 137° |
| 2026-05-07 17:35 | 50.73529 | 4.80017 | 34999 ft | 449 kts | 137° |
| 2026-05-07 17:36 | 50.71310 | 4.83482 | 35275 ft | 449 kts | 137° |
| 2026-05-07 17:36 | 50.69245 | 4.86700 | 35536 ft | 448 kts | 137° |
| 2026-05-07 17:36 | 50.67016 | 4.90131 | 35799 ft | 448 kts | 140° |
| 2026-05-07 17:36 | 50.64666 | 4.93323 | 36045 ft | 447 kts | 142° |
| 2026-05-07 17:37 | 50.62432 | 4.96250 | 36279 ft | 447 kts | 143° |
| 2026-05-07 17:37 | 50.60034 | 4.99332 | 36513 ft | 447 kts | 143° |
| 2026-05-07 17:37 | 50.57624 | 5.02397 | 36747 ft | 447 kts | 143° |
| 2026-05-07 17:37 | 50.55205 | 5.05456 | 36980 ft | 446 kts | 143° |
| 2026-05-07 17:38 | 50.52792 | 5.08503 | 37189 ft | 447 kts | 144° |
| 2026-05-07 17:38 | 50.50373 | 5.11556 | 37384 ft | 447 kts | 143° |
| 2026-05-07 17:38 | 50.47953 | 5.14611 | 37607 ft | 447 kts | 143° |
| 2026-05-07 17:38 | 50.45547 | 5.17647 | 37837 ft | 447 kts | 143° |
| 2026-05-07 17:39 | 50.43129 | 5.20697 | 38059 ft | 446 kts | 143° |
| 2026-05-07 17:39 | 50.40717 | 5.23736 | 38265 ft | 446 kts | 144° |
| 2026-05-07 17:39 | 50.38301 | 5.26777 | 38473 ft | 446 kts | 144° |
| 2026-05-07 17:39 | 50.35890 | 5.29807 | 38673 ft | 446 kts | 144° |
| 2026-05-07 17:40 | 50.33473 | 5.32841 | 38835 ft | 446 kts | 144° |
| 2026-05-07 17:40 | 50.31056 | 5.35870 | 38967 ft | 446 kts | 144° |
| 2026-05-07 17:40 | 50.26204 | 5.41938 | 39064 ft | 448 kts | 144° |
| 2026-05-07 17:41 | 50.21347 | 5.47997 | 39064 ft | 447 kts | 144° |
| 2026-05-07 17:41 | 50.16493 | 5.54036 | 39059 ft | 447 kts | 144° |
| 2026-05-07 17:42 | 50.11636 | 5.60063 | 39059 ft | 447 kts | 144° |
| 2026-05-07 17:42 | 50.09058 | 5.62678 | 39051 ft | 440 kts | 160° |
| 2026-05-07 17:42 | 50.06153 | 5.63953 | 39055 ft | 432 kts | 176° |
| 2026-05-07 17:43 | 50.00171 | 5.64457 | 39050 ft | 433 kts | 180° |
| 2026-05-07 17:43 | 49.94156 | 5.65146 | 39049 ft | 438 kts | 167° |
| 2026-05-07 17:44 | 49.88289 | 5.67214 | 39053 ft | 432 kts | 179° |
| 2026-05-07 17:44 | 49.82278 | 5.67747 | 39038 ft | 435 kts | 179° |
| 2026-05-07 17:45 | 49.76495 | 5.68248 | 39048 ft | 435 kts | 179° |
| 2026-05-07 17:45 | 49.70461 | 5.68774 | 39046 ft | 435 kts | 179° |
| 2026-05-07 17:46 | 49.64460 | 5.69867 | 39036 ft | 439 kts | 163° |
| 2026-05-07 17:46 | 49.61724 | 5.71942 | 39037 ft | 443 kts | 146° |
| 2026-05-07 17:46 | 49.59425 | 5.75118 | 39036 ft | 447 kts | 135° |
| 2026-05-07 17:47 | 49.55318 | 5.82358 | 39040 ft | 452 kts | 133° |
| 2026-05-07 17:47 | 49.51269 | 5.89749 | 39031 ft | 453 kts | 133° |
| 2026-05-07 17:48 | 49.47245 | 5.97091 | 39031 ft | 453 kts | 133° |
| 2026-05-07 17:48 | 49.43193 | 6.04472 | 39030 ft | 453 kts | 133° |
| 2026-05-07 17:49 | 49.39139 | 6.11845 | 39030 ft | 453 kts | 133° |
| 2026-05-07 17:49 | 49.35097 | 6.19185 | 39017 ft | 453 kts | 133° |
| 2026-05-07 17:50 | 49.31052 | 6.26533 | 39017 ft | 446 kts | 133° |
| 2026-05-07 17:50 | 49.27117 | 6.33699 | 39021 ft | 437 kts | 133° |
| 2026-05-07 17:51 | 49.23219 | 6.40791 | 39022 ft | 436 kts | 133° |
| 2026-05-07 17:51 | 49.19130 | 6.47589 | 39023 ft | 434 kts | 139° |
| 2026-05-07 17:52 | 49.14587 | 6.53581 | 39022 ft | 431 kts | 145° |
| 2026-05-07 17:52 | 49.10017 | 6.58864 | 38956 ft | 431 kts | 147° |
| 2026-05-07 17:53 | 49.07603 | 6.61567 | 38747 ft | 430 kts | 147° |
| 2026-05-07 17:53 | 49.05202 | 6.64249 | 38478 ft | 428 kts | 147° |
| 2026-05-07 17:53 | 49.02789 | 6.66879 | 38194 ft | 425 kts | 151° |
| 2026-05-07 17:53 | 49.00228 | 6.69036 | 37920 ft | 418 kts | 160° |
| 2026-05-07 17:54 | 48.97523 | 6.70526 | 37687 ft | 411 kts | 169° |
| 2026-05-07 17:54 | 48.94734 | 6.71225 | 37737 ft | 406 kts | 180° |
| 2026-05-07 17:54 | 48.89086 | 6.71388 | 37913 ft | 409 kts | 184° |
| 2026-05-07 17:55 | 48.83370 | 6.71129 | 38030 ft | 415 kts | 185° |
| 2026-05-07 17:55 | 48.77571 | 6.70821 | 38164 ft | 421 kts | 185° |
| 2026-05-07 17:56 | 48.71730 | 6.70558 | 38297 ft | 428 kts | 185° |
| 2026-05-07 17:56 | 48.65992 | 6.70330 | 38465 ft | 433 kts | 185° |
| 2026-05-07 17:57 | 48.62988 | 6.70216 | 38603 ft | 434 kts | 185° |
| 2026-05-07 17:57 | 48.60978 | 6.70139 | 38695 ft | 435 kts | 185° |
| 2026-05-07 17:57 | 48.56958 | 6.69987 | 38930 ft | 434 kts | 185° |
| 2026-05-07 17:57 | 48.53945 | 6.69873 | 39030 ft | 435 kts | 185° |
| 2026-05-07 17:58 | 48.47910 | 6.69641 | 39046 ft | 434 kts | 185° |
| 2026-05-07 17:58 | 48.41884 | 6.69410 | 38836 ft | 434 kts | 185° |
| 2026-05-07 17:59 | 48.38880 | 6.69294 | 38382 ft | 432 kts | 185° |
| 2026-05-07 17:59 | 48.35883 | 6.69179 | 37802 ft | 432 kts | 185° |
| 2026-05-07 17:59 | 48.32883 | 6.69064 | 37197 ft | 432 kts | 185° |
| 2026-05-07 17:59 | 48.29888 | 6.68948 | 36578 ft | 432 kts | 185° |
| 2026-05-07 18:00 | 48.26905 | 6.68832 | 35967 ft | 433 kts | 185° |
| 2026-05-07 18:00 | 48.23897 | 6.68716 | 35366 ft | 434 kts | 185° |
| 2026-05-07 18:00 | 48.21291 | 6.68616 | 34859 ft | 434 kts | 185° |
| 2026-05-07 18:00 | 48.18283 | 6.68500 | 34286 ft | 435 kts | 185° |
| 2026-05-07 18:01 | 48.15266 | 6.68384 | 33638 ft | 435 kts | 185° |
| 2026-05-07 18:01 | 48.12238 | 6.68268 | 32948 ft | 436 kts | 185° |
| 2026-05-07 18:01 | 48.09252 | 6.68153 | 32279 ft | 437 kts | 185° |
| 2026-05-07 18:01 | 48.06213 | 6.68038 | 31601 ft | 438 kts | 184° |
| 2026-05-07 18:02 | 48.02022 | 6.67880 | 30764 ft | 437 kts | 184° |
| 2026-05-07 18:02 | 47.98998 | 6.67767 | 30271 ft | 434 kts | 184° |
| 2026-05-07 18:02 | 47.95993 | 6.67654 | 29733 ft | 431 kts | 184° |
| 2026-05-07 18:03 | 47.93015 | 6.67542 | 29170 ft | 427 kts | 184° |
| 2026-05-07 18:03 | 47.90063 | 6.67432 | 28641 ft | 423 kts | 184° |
| 2026-05-07 18:03 | 47.87140 | 6.67322 | 28110 ft | 419 kts | 184° |
| 2026-05-07 18:03 | 47.84241 | 6.67213 | 27592 ft | 415 kts | 184° |
| 2026-05-07 18:04 | 47.81379 | 6.67106 | 27069 ft | 412 kts | 184° |
| 2026-05-07 18:04 | 47.78485 | 6.66997 | 26554 ft | 408 kts | 184° |
| 2026-05-07 18:04 | 47.75699 | 6.66893 | 26070 ft | 405 kts | 184° |
| 2026-05-07 18:04 | 47.72867 | 6.66786 | 25581 ft | 401 kts | 184° |
| 2026-05-07 18:05 | 47.70126 | 6.66684 | 25098 ft | 399 kts | 184° |
| 2026-05-07 18:05 | 47.67369 | 6.66580 | 24634 ft | 395 kts | 184° |
| 2026-05-07 18:05 | 47.64605 | 6.66476 | 24212 ft | 392 kts | 184° |
| 2026-05-07 18:05 | 47.61891 | 6.66374 | 24046 ft | 391 kts | 184° |
| 2026-05-07 18:06 | 47.59208 | 6.66273 | 24019 ft | 392 kts | 184° |
| 2026-05-07 18:06 | 47.56513 | 6.66171 | 24022 ft | 393 kts | 184° |
| 2026-05-07 18:06 | 47.53807 | 6.66070 | 24020 ft | 393 kts | 184° |
| 2026-05-07 18:06 | 47.51020 | 6.65967 | 24022 ft | 393 kts | 184° |
| 2026-05-07 18:07 | 47.48292 | 6.65865 | 24022 ft | 393 kts | 184° |
| 2026-05-07 18:07 | 47.45577 | 6.65764 | 24020 ft | 393 kts | 184° |
| 2026-05-07 18:07 | 47.42851 | 6.65663 | 24022 ft | 393 kts | 184° |
| 2026-05-07 18:07 | 47.40290 | 6.65568 | 24023 ft | 393 kts | 184° |
| 2026-05-07 18:08 | 47.37558 | 6.65467 | 24025 ft | 394 kts | 184° |
| 2026-05-07 18:08 | 47.34820 | 6.65367 | 24023 ft | 394 kts | 184° |
| 2026-05-07 18:08 | 47.32088 | 6.65267 | 24028 ft | 394 kts | 184° |
| 2026-05-07 18:08 | 47.29357 | 6.65167 | 24030 ft | 393 kts | 184° |
| 2026-05-07 18:09 | 47.26626 | 6.65051 | 24033 ft | 393 kts | 186° |
| 2026-05-07 18:09 | 47.23934 | 6.64570 | 24034 ft | 390 kts | 194° |
| 2026-05-07 18:09 | 47.21383 | 6.63417 | 24037 ft | 387 kts | 205° |
| 2026-05-07 18:09 | 47.19096 | 6.61640 | 24028 ft | 384 kts | 216° |
| 2026-05-07 18:10 | 47.16993 | 6.59252 | 24040 ft | 383 kts | 223° |
| 2026-05-07 18:10 | 47.15006 | 6.56666 | 24041 ft | 383 kts | 224° |
| 2026-05-07 18:10 | 47.13040 | 6.54059 | 23703 ft | 380 kts | 224° |
| 2026-05-07 18:10 | 47.11085 | 6.51470 | 23119 ft | 379 kts | 224° |
| 2026-05-07 18:11 | 47.09160 | 6.48934 | 22581 ft | 376 kts | 224° |
| 2026-05-07 18:11 | 47.07868 | 6.47237 | 22240 ft | 374 kts | 224° |
| 2026-05-07 18:11 | 47.05299 | 6.43873 | 21559 ft | 370 kts | 224° |
| 2026-05-07 18:11 | 47.03416 | 6.41415 | 21040 ft | 367 kts | 224° |
| 2026-05-07 18:12 | 47.01525 | 6.38948 | 20565 ft | 364 kts | 224° |
| 2026-05-07 18:12 | 46.99660 | 6.36521 | 20299 ft | 354 kts | 223° |
| 2026-05-07 18:12 | 46.97821 | 6.34133 | 19747 ft | 354 kts | 222° |
| 2026-05-07 18:12 | 46.95996 | 6.31768 | 19327 ft | 344 kts | 224° |
| 2026-05-07 18:13 | 46.94250 | 6.29501 | 19073 ft | 328 kts | 224° |
| 2026-05-07 18:13 | 46.92576 | 6.27329 | 18693 ft | 318 kts | 224° |
| 2026-05-07 18:13 | 46.90934 | 6.25195 | 18183 ft | 315 kts | 224° |
| 2026-05-07 18:13 | 46.89313 | 6.23081 | 17624 ft | 311 kts | 224° |
| 2026-05-07 18:14 | 46.87707 | 6.20985 | 16985 ft | 309 kts | 224° |
| 2026-05-07 18:14 | 46.86116 | 6.18910 | 16356 ft | 306 kts | 224° |
| 2026-05-07 18:14 | 46.84534 | 6.16847 | 15750 ft | 304 kts | 223° |
| 2026-05-07 18:14 | 46.82964 | 6.14804 | 15159 ft | 302 kts | 223° |
| 2026-05-07 18:15 | 46.81406 | 6.12777 | 14577 ft | 300 kts | 223° |
| 2026-05-07 18:15 | 46.79866 | 6.10776 | 14005 ft | 297 kts | 223° |
| 2026-05-07 18:15 | 46.78324 | 6.08774 | 13368 ft | 296 kts | 222° |
| 2026-05-07 18:15 | 46.76795 | 6.06790 | 12802 ft | 292 kts | 222° |
| 2026-05-07 18:16 | 46.75284 | 6.04832 | 12292 ft | 296 kts | 222° |
| 2026-05-07 18:16 | 46.73691 | 6.02768 | 12051 ft | 318 kts | 222° |
| 2026-05-07 18:16 | 46.72085 | 6.00690 | 12015 ft | 323 kts | 222° |
| 2026-05-07 18:16 | 46.70411 | 5.98526 | 12031 ft | 323 kts | 222° |
| 2026-05-07 18:17 | 46.68740 | 5.96368 | 12020 ft | 317 kts | 222° |
| 2026-05-07 18:17 | 46.67139 | 5.94302 | 12030 ft | 299 kts | 221° |
| 2026-05-07 18:17 | 46.65621 | 5.92351 | 12026 ft | 286 kts | 221° |
| 2026-05-07 18:17 | 46.64139 | 5.90450 | 12019 ft | 285 kts | 221° |
| 2026-05-07 18:18 | 46.62657 | 5.88551 | 12020 ft | 285 kts | 221° |
| 2026-05-07 18:18 | 46.61166 | 5.86642 | 12023 ft | 286 kts | 221° |
| 2026-05-07 18:18 | 46.59568 | 5.84932 | 12021 ft | 286 kts | 210° |
| 2026-05-07 18:18 | 46.57709 | 5.83926 | 12014 ft | 287 kts | 192° |
| 2026-05-07 18:19 | 46.55717 | 5.83865 | 12018 ft | 290 kts | 173° |
| 2026-05-07 18:19 | 46.53803 | 5.84794 | 12015 ft | 294 kts | 154° |
| 2026-05-07 18:19 | 46.52065 | 5.86370 | 12025 ft | 296 kts | 148° |
| 2026-05-07 18:19 | 46.50383 | 5.88084 | 11844 ft | 296 kts | 147° |
| 2026-05-07 18:20 | 46.48710 | 5.89804 | 11458 ft | 294 kts | 147° |
| 2026-05-07 18:20 | 46.47050 | 5.91499 | 11095 ft | 290 kts | 148° |
| 2026-05-07 18:20 | 46.45955 | 5.92610 | 10775 ft | 287 kts | 148° |
| 2026-05-07 18:20 | 46.43792 | 5.94792 | 10101 ft | 283 kts | 148° |
| 2026-05-07 18:21 | 46.42177 | 5.96413 | 9644 ft | 282 kts | 148° |
| 2026-05-07 18:21 | 46.40628 | 5.97967 | 9458 ft | 271 kts | 148° |
| 2026-05-07 18:21 | 46.39082 | 5.99517 | 9303 ft | 259 kts | 148° |
| 2026-05-07 18:21 | 46.37668 | 6.00923 | 9087 ft | 247 kts | 150° |
| 2026-05-07 18:22 | 46.36186 | 6.02053 | 8685 ft | 237 kts | 161° |
| 2026-05-07 18:22 | 46.35125 | 6.02462 | 8313 ft | 240 kts | 173° |
| 2026-05-07 18:22 | 46.32978 | 6.02273 | 8016 ft | 241 kts | 196° |
| 2026-05-07 18:22 | 46.31583 | 6.01385 | 7994 ft | 240 kts | 212° |
| 2026-05-07 18:23 | 46.30299 | 5.99874 | 7998 ft | 238 kts | 223° |
| 2026-05-07 18:23 | 46.29131 | 5.98193 | 7767 ft | 238 kts | 224° |
| 2026-05-07 18:23 | 46.27978 | 5.96493 | 7273 ft | 238 kts | 224° |
| 2026-05-07 18:23 | 46.26867 | 5.94862 | 7033 ft | 237 kts | 224° |
| 2026-05-07 18:24 | 46.26070 | 5.93687 | 7005 ft | 238 kts | 224° |
| 2026-05-07 18:24 | 46.24916 | 5.91988 | 6993 ft | 240 kts | 224° |
| 2026-05-07 18:24 | 46.23745 | 5.90274 | 6988 ft | 238 kts | 224° |
| 2026-05-07 18:24 | 46.22595 | 5.88579 | 6990 ft | 236 kts | 224° |
| 2026-05-07 18:25 | 46.21449 | 5.86891 | 6990 ft | 236 kts | 224° |
| 2026-05-07 18:25 | 46.20302 | 5.85205 | 6998 ft | 236 kts | 224° |
| 2026-05-07 18:25 | 46.19151 | 5.83521 | 7000 ft | 236 kts | 224° |
| 2026-05-07 18:25 | 46.17999 | 5.81836 | 6995 ft | 236 kts | 224° |
| 2026-05-07 18:26 | 46.16853 | 5.80153 | 6995 ft | 236 kts | 224° |
| 2026-05-07 18:26 | 46.15705 | 5.78467 | 6994 ft | 236 kts | 224° |
| 2026-05-07 18:26 | 46.14564 | 5.76779 | 7000 ft | 236 kts | 224° |
| 2026-05-07 18:26 | 46.13419 | 5.75093 | 6732 ft | 236 kts | 224° |
| 2026-05-07 18:27 | 46.12276 | 5.73407 | 6271 ft | 235 kts | 224° |
| 2026-05-07 18:27 | 46.11140 | 5.71738 | 6035 ft | 237 kts | 224° |
| 2026-05-07 18:27 | 46.09997 | 5.70067 | 5988 ft | 238 kts | 224° |
| 2026-05-07 18:27 | 46.09258 | 5.68976 | 5992 ft | 237 kts | 225° |
| 2026-05-07 18:28 | 46.07791 | 5.66824 | 5986 ft | 233 kts | 224° |
| 2026-05-07 18:28 | 46.06721 | 5.65235 | 5991 ft | 211 kts | 224° |
| 2026-05-07 18:28 | 46.05747 | 5.63797 | 5996 ft | 195 kts | 221° |
| 2026-05-07 18:28 | 46.04578 | 5.62948 | 6005 ft | 189 kts | 185° |
| 2026-05-07 18:29 | 46.03340 | 5.63338 | 6003 ft | 187 kts | 149° |
| 2026-05-07 18:29 | 46.02400 | 5.64617 | 5990 ft | 191 kts | 121° |
| 2026-05-07 18:29 | 46.02119 | 5.66439 | 5988 ft | 195 kts | 86° |
| 2026-05-07 18:29 | 46.02418 | 5.68348 | 5986 ft | 197 kts | 73° |
| 2026-05-07 18:30 | 46.02835 | 5.70214 | 5991 ft | 198 kts | 73° |
| 2026-05-07 18:30 | 46.03270 | 5.72077 | 5985 ft | 198 kts | 73° |
| 2026-05-07 18:30 | 46.03721 | 5.73946 | 5985 ft | 198 kts | 73° |
| 2026-05-07 18:30 | 46.04179 | 5.75811 | 5982 ft | 197 kts | 72° |
| 2026-05-07 18:31 | 46.04631 | 5.77659 | 5993 ft | 194 kts | 73° |
| 2026-05-07 18:31 | 46.05069 | 5.79475 | 5995 ft | 192 kts | 72° |
| 2026-05-07 18:31 | 46.05512 | 5.81295 | 5985 ft | 194 kts | 72° |
| 2026-05-07 18:31 | 46.05967 | 5.83099 | 6025 ft | 189 kts | 71° |
| 2026-05-07 18:32 | 46.06429 | 5.84791 | 6070 ft | 178 kts | 65° |
| 2026-05-07 18:32 | 46.07163 | 5.86164 | 6112 ft | 170 kts | 45° |
| 2026-05-07 18:32 | 46.08016 | 5.87325 | 5980 ft | 172 kts | 47° |
| 2026-05-07 18:32 | 46.08857 | 5.88584 | 5773 ft | 178 kts | 49° |
| 2026-05-07 18:33 | 46.09669 | 5.89938 | 5632 ft | 179 kts | 51° |
| 2026-05-07 18:33 | 46.10455 | 5.91338 | 5458 ft | 181 kts | 51° |
| 2026-05-07 18:33 | 46.11273 | 5.92668 | 5367 ft | 173 kts | 48° |
| 2026-05-07 18:33 | 46.12101 | 5.93970 | 4909 ft | 179 kts | 49° |
| 2026-05-07 18:34 | 46.12939 | 5.95284 | 4472 ft | 178 kts | 48° |
| 2026-05-07 18:34 | 46.13756 | 5.96566 | 4122 ft | 172 kts | 46° |
| 2026-05-07 18:34 | 46.14554 | 5.97786 | 3865 ft | 163 kts | 44° |
| 2026-05-07 18:34 | 46.15356 | 5.98881 | 3586 ft | 157 kts | 41° |
| 2026-05-07 18:35 | 46.16175 | 5.99882 | 3291 ft | 153 kts | 39° |
| 2026-05-07 18:35 | 46.16939 | 6.00890 | 2988 ft | 145 kts | 45° |
| 2026-05-07 18:35 | 46.17599 | 6.01927 | 2795 ft | 139 kts | 46° |
| 2026-05-07 18:35 | 46.18227 | 6.02978 | 2643 ft | 138 kts | 49° |
| 2026-05-07 18:36 | 46.18885 | 6.03967 | 2483 ft | 135 kts | 41° |
| 2026-05-07 18:36 | 46.19607 | 6.04819 | 2283 ft | 137 kts | 38° |
| 2026-05-07 18:36 | 46.20314 | 6.05732 | 2091 ft | 134 kts | 44° |
| 2026-05-07 18:36 | 46.20950 | 6.06714 | 1929 ft | 136 kts | 46° |
| 2026-05-07 18:37 | 46.21552 | 6.07638 | 1780 ft | 137 kts | 44° |
| 2026-05-07 18:37 | 46.22265 | 6.08644 | 1578 ft | 137 kts | 44° |
| 2026-05-07 18:37 | 46.22905 | 6.09585 | 1420 ft | 126 kts | 45° |
| 2026-05-07 18:37 | 46.23509 | 6.10461 | 1462 ft | 134 kts | 44° |
| 2026-05-07 18:38 | 46.24216 | 6.11489 | 2155 ft | 145 kts | 44° |
| 2026-05-07 18:38 | 46.24992 | 6.12606 | 2685 ft | 174 kts | 45° |
| 2026-05-07 18:38 | 46.25915 | 6.13936 | 3132 ft | 198 kts | 44° |
| 2026-05-07 18:38 | 46.26911 | 6.15373 | 3826 ft | 206 kts | 45° |
| 2026-05-07 18:39 | 46.27934 | 6.16848 | 4645 ft | 209 kts | 42° |
| 2026-05-07 18:39 | 46.28968 | 6.18330 | 5385 ft | 214 kts | 45° |
| 2026-05-07 18:39 | 46.30030 | 6.19845 | 6125 ft | 216 kts | 45° |
| 2026-05-07 18:39 | 46.31128 | 6.21385 | 6715 ft | 226 kts | 45° |
| 2026-05-07 18:40 | 46.32279 | 6.22991 | 6956 ft | 232 kts | 45° |
| 2026-05-07 18:40 | 46.33437 | 6.24615 | 6991 ft | 232 kts | 45° |
| 2026-05-07 18:40 | 46.34594 | 6.26242 | 6998 ft | 233 kts | 45° |